createdAt,value
2022-08-17T00:00:11.031Z,19.63
2022-08-17T00:03:02.867Z,19.50
2022-08-17T00:05:34.940Z,19.45
2022-08-17T00:08:06.260Z,19.40
2022-08-17T00:10:38.408Z,19.38
2022-08-17T00:13:09.783Z,19.36
2022-08-17T00:15:38.805Z,19.36
2022-08-17T00:19:00.347Z,19.37
2022-08-17T00:20:44.072Z,19.37
2022-08-17T00:23:16.307Z,19.37
2022-08-17T00:25:49.085Z,19.36
2022-08-17T00:28:18.794Z,19.32
2022-08-17T00:30:52.853Z,19.31
2022-08-17T00:33:32.984Z,19.16
2022-08-17T00:36:08.078Z,19.16
2022-08-17T00:38:43.490Z,19.07
2022-08-17T00:41:15.526Z,19.08
2022-08-17T00:43:51.514Z,19.04
2022-08-17T00:46:30.826Z,18.96
2022-08-17T00:48:58.864Z,19.00
2022-08-17T00:51:48.787Z,18.90
2022-08-17T00:54:23.411Z,18.77
2022-08-17T00:56:58.113Z,18.72
2022-08-17T00:59:31.227Z,18.66
2022-08-17T01:02:03.218Z,18.68
2022-08-17T01:04:33.794Z,18.72
2022-08-17T01:07:05.230Z,18.61
2022-08-17T01:09:39.589Z,18.58
2022-08-17T01:12:12.619Z,18.68
2022-08-17T01:14:45.542Z,18.63
2022-08-17T01:17:18.037Z,18.63
2022-08-17T01:19:48.407Z,18.54
2022-08-17T01:22:24.208Z,18.63
2022-08-17T01:24:56.122Z,18.61
2022-08-17T01:27:27.030Z,18.57
2022-08-17T01:30:01.636Z,18.51
2022-08-17T01:32:32.284Z,18.46
2022-08-17T01:35:05.323Z,18.41
2022-08-17T01:37:40.621Z,18.45
2022-08-17T01:40:19.683Z,18.38
2022-08-17T01:42:55.243Z,18.27
2022-08-17T01:45:35.502Z,18.18
2022-08-17T01:48:29.825Z,18.17
2022-08-17T01:51:05.008Z,18.16
2022-08-17T01:53:40.989Z,18.10
2022-08-17T01:56:13.012Z,18.01
2022-08-17T01:58:46.975Z,18.06
2022-08-17T02:01:26.199Z,18.00
2022-08-17T02:04:31.225Z,18.04
2022-08-17T02:07:02.908Z,18.04
2022-08-17T02:09:38.168Z,17.92
2022-08-17T02:12:39.171Z,17.89
2022-08-17T02:14:39.096Z,18.00
2022-08-17T02:17:08.047Z,18.00
2022-08-17T02:19:36.868Z,17.94
2022-08-17T02:22:08.787Z,17.83
2022-08-17T02:25:00.288Z,17.75
2022-08-17T02:27:29.086Z,17.67
2022-08-17T02:30:50.094Z,17.62
2022-08-17T02:32:39.652Z,17.74
2022-08-17T02:35:11.699Z,17.68
2022-08-17T02:37:44.940Z,17.55
2022-08-17T02:40:35.614Z,17.40
2022-08-17T02:42:50.526Z,17.35
2022-08-17T02:45:23.010Z,17.26
2022-08-17T02:47:52.619Z,17.19
2022-08-17T02:50:23.984Z,17.26
2022-08-17T02:53:02.083Z,17.28
2022-08-17T02:55:32.041Z,17.17
2022-08-17T02:58:01.883Z,17.17
2022-08-17T03:00:41.221Z,17.26
2022-08-17T03:03:13.683Z,17.27
2022-08-17T03:05:43.092Z,17.25
2022-08-17T03:08:13.096Z,17.30
2022-08-17T03:10:45.817Z,17.29
2022-08-17T03:13:17.726Z,17.38
2022-08-17T03:15:49.614Z,17.39
2022-08-17T03:18:25.014Z,17.33
2022-08-17T03:20:51.049Z,17.36
2022-08-17T03:23:23.932Z,17.48
2022-08-17T03:25:52.989Z,17.34
2022-08-17T03:28:21.381Z,17.41
2022-08-17T03:30:51.949Z,17.32
2022-08-17T03:33:25.752Z,17.27
2022-08-17T03:35:58.483Z,17.20
2022-08-17T03:38:27.777Z,17.21
2022-08-17T03:40:59.778Z,17.27
2022-08-17T03:43:31.782Z,17.28
2022-08-17T03:46:27.723Z,17.26
2022-08-17T03:49:10.733Z,17.33
2022-08-17T03:51:57.138Z,17.37
2022-08-17T03:54:45.082Z,17.41
2022-08-17T03:57:14.586Z,17.38
2022-08-17T03:59:45.409Z,17.51
2022-08-17T04:02:29.798Z,17.56
2022-08-17T04:04:59.724Z,17.65
2022-08-17T04:07:33.557Z,17.69
2022-08-17T04:10:02.378Z,17.76
2022-08-17T04:12:35.825Z,17.91
2022-08-17T04:15:05.323Z,17.98
2022-08-17T04:17:41.109Z,18.06
2022-08-17T04:20:12.466Z,18.05
2022-08-17T04:22:41.410Z,18.10
2022-08-17T04:25:15.939Z,18.15
2022-08-17T04:27:46.099Z,18.30
2022-08-17T04:30:15.024Z,18.37
2022-08-17T04:33:19.230Z,18.43
2022-08-17T04:35:32.362Z,18.48
2022-08-17T04:38:01.940Z,18.49
2022-08-17T04:40:48.747Z,18.59
2022-08-17T04:43:20.540Z,18.60
2022-08-17T04:45:56.113Z,18.66
2022-08-17T04:48:29.702Z,18.76
2022-08-17T04:50:56.419Z,18.84
2022-08-17T04:53:26.500Z,18.91
2022-08-17T04:55:59.039Z,18.92
2022-08-17T04:58:35.666Z,19.03
2022-08-17T05:01:05.938Z,19.11
2022-08-17T05:03:34.795Z,19.28
2022-08-17T05:06:12.631Z,19.33
2022-08-17T05:08:39.851Z,19.47
2022-08-17T05:11:09.249Z,19.58
2022-08-17T05:13:41.059Z,19.58
2022-08-17T05:16:12.949Z,19.65
2022-08-17T05:18:44.068Z,19.78
2022-08-17T05:21:17.180Z,19.91
2022-08-17T05:23:56.408Z,20.01
2022-08-17T05:26:27.378Z,20.12
2022-08-17T05:29:02.699Z,20.19
2022-08-17T05:31:36.056Z,20.24
2022-08-17T05:34:04.936Z,20.29
2022-08-17T05:36:42.199Z,20.30
2022-08-17T05:39:04.640Z,20.31
2022-08-17T05:41:36.198Z,20.36
2022-08-17T05:44:05.235Z,20.41
2022-08-17T05:46:37.331Z,20.53
2022-08-17T05:49:11.638Z,20.66
2022-08-17T05:51:55.861Z,20.81
2022-08-17T05:54:56.355Z,20.82
2022-08-17T05:57:53.811Z,20.99
2022-08-17T06:00:30.397Z,21.10
2022-08-17T06:03:01.223Z,21.04
2022-08-17T06:06:01.906Z,21.14
2022-08-17T06:08:52.961Z,21.07
2022-08-17T06:11:39.672Z,21.04
2022-08-17T06:14:32.377Z,21.08
2022-08-17T06:17:07.052Z,21.06
2022-08-17T06:19:46.004Z,21.21
2022-08-17T06:22:18.307Z,21.25
2022-08-17T06:25:10.235Z,21.33
2022-08-17T06:27:46.241Z,21.42
2022-08-17T06:30:27.790Z,21.55
2022-08-17T06:33:12.362Z,21.60
2022-08-17T06:35:44.825Z,21.80
2022-08-17T06:38:54.915Z,21.97
2022-08-17T06:47:34.156Z,22.30
2022-08-17T06:50:16.355Z,22.42
2022-08-17T06:52:57.396Z,22.72
2022-08-17T06:55:38.053Z,22.86
2022-08-17T06:58:15.788Z,22.78
2022-08-17T07:00:44.646Z,22.86
2022-08-17T07:03:33.408Z,22.97
2022-08-17T07:06:10.794Z,22.98
2022-08-17T07:08:44.850Z,23.26
2022-08-17T07:11:19.618Z,23.51
2022-08-17T07:14:22.370Z,23.73
2022-08-17T07:16:54.303Z,23.94
2022-08-17T07:19:30.113Z,23.80
2022-08-17T07:22:31.126Z,23.83
2022-08-17T07:25:08.054Z,23.87
2022-08-17T07:27:44.695Z,24.10
2022-08-17T07:30:16.464Z,24.27
2022-08-17T07:32:52.755Z,24.52
2022-08-17T07:35:24.751Z,24.71
2022-08-17T07:38:07.543Z,24.93
2022-08-17T07:41:03.079Z,24.98
2022-08-17T07:44:00.130Z,25.09
2022-08-17T07:47:29.864Z,25.27
2022-08-17T07:50:32.047Z,25.38
2022-08-17T07:53:28.775Z,25.55
2022-08-17T07:59:37.126Z,25.61
2022-08-17T08:12:33.669Z,25.90
2022-08-17T08:15:20.395Z,25.88
2022-08-17T08:21:58.129Z,26.25
2022-08-17T08:24:41.627Z,26.52
2022-08-17T08:27:35.493Z,26.17
2022-08-17T08:30:24.588Z,26.54
2022-08-17T08:32:57.296Z,26.39
2022-08-17T08:35:45.678Z,26.78
2022-08-17T08:38:40.235Z,26.93
2022-08-17T08:41:20.644Z,26.88
2022-08-17T08:44:11.370Z,26.96
2022-08-17T08:46:49.114Z,27.02
2022-08-17T08:49:45.292Z,27.22
2022-08-17T08:51:57.590Z,26.97
2022-08-17T08:54:31.974Z,27.22
2022-08-17T08:59:58.266Z,27.58
2022-08-17T09:02:36.352Z,27.65
2022-08-17T09:05:16.558Z,28.06
2022-08-17T09:10:49.212Z,28.08
2022-08-17T09:13:37.346Z,28.01
2022-08-17T09:16:19.851Z,27.73
2022-08-17T09:19:04.485Z,27.82
2022-08-17T09:21:48.094Z,27.76
2022-08-17T09:24:28.397Z,28.34
2022-08-17T09:27:16.036Z,28.44
2022-08-17T09:29:57.811Z,28.18
2022-08-17T09:32:44.577Z,28.23
2022-08-17T09:35:19.987Z,28.51
2022-08-17T09:38:17.092Z,28.77
2022-08-17T09:40:56.971Z,28.92
2022-08-17T09:43:40.945Z,28.85
2022-08-17T09:46:24.629Z,28.42
2022-08-17T09:49:15.251Z,28.54
2022-08-17T09:52:11.320Z,28.77
2022-08-17T09:54:42.588Z,28.81
2022-08-17T09:57:31.007Z,28.77
2022-08-17T10:00:20.172Z,28.85
2022-08-17T10:03:28.777Z,29.02
2022-08-17T10:06:13.444Z,28.78
2022-08-17T10:09:04.647Z,28.69
2022-08-17T10:11:48.277Z,28.66
2022-08-17T10:14:36.399Z,28.69
2022-08-17T10:17:03.896Z,28.90
2022-08-17T10:19:47.564Z,28.78
2022-08-17T10:22:40.098Z,29.13
2022-08-17T10:25:48.696Z,29.27
2022-08-17T10:30:37.080Z,29.47
2022-08-17T10:31:34.147Z,29.22
2022-08-17T10:33:53.993Z,29.16
2022-08-17T10:36:25.484Z,29.33
2022-08-17T10:39:21.228Z,29.70
2022-08-17T10:41:53.190Z,29.85
2022-08-17T10:44:42.725Z,30.07
2022-08-17T10:47:18.545Z,29.31
2022-08-17T10:49:56.286Z,29.49
2022-08-17T10:52:33.973Z,29.95
2022-08-17T10:55:15.129Z,29.93
2022-08-17T10:58:16.038Z,30.19
2022-08-17T11:01:03.071Z,30.05
2022-08-17T11:03:45.914Z,30.49
2022-08-17T11:06:26.122Z,30.15
2022-08-17T11:09:40.530Z,30.63
2022-08-17T11:12:15.362Z,30.67
2022-08-17T11:15:20.048Z,30.67
2022-08-17T11:18:15.900Z,30.38
2022-08-17T11:21:27.464Z,30.61
2022-08-17T11:24:35.100Z,30.43
2022-08-17T11:30:30.073Z,30.65
2022-08-17T11:33:15.795Z,31.47
2022-08-17T11:39:29.996Z,32.21
2022-08-17T11:46:22.735Z,31.69
2022-08-17T11:49:21.196Z,31.18
2022-08-17T11:52:12.581Z,30.80
2022-08-17T11:54:47.746Z,29.92
2022-08-17T11:57:31.736Z,29.33
2022-08-17T12:00:08.651Z,29.82
2022-08-17T12:02:47.835Z,29.24
2022-08-17T12:05:18.015Z,29.16
2022-08-17T12:07:49.766Z,29.22
2022-08-17T12:13:09.125Z,30.44
2022-08-17T12:15:40.669Z,30.25
2022-08-17T12:18:14.201Z,29.42
2022-08-17T12:20:56.097Z,29.72
2022-08-17T12:26:22.911Z,30.35
2022-08-17T12:28:56.058Z,30.59
2022-08-17T12:32:05.983Z,30.57
2022-08-17T12:35:08.290Z,29.96
2022-08-17T12:37:37.034Z,30.56
2022-08-17T12:40:25.363Z,31.09
2022-08-17T12:43:13.640Z,30.96
2022-08-17T12:52:19.759Z,31.40
2022-08-17T12:57:55.376Z,32.02
2022-08-17T13:00:34.959Z,31.34
2022-08-17T13:03:12.575Z,30.73
2022-08-17T13:05:44.190Z,30.06
2022-08-17T13:08:19.246Z,30.11
2022-08-17T13:11:00.702Z,30.15
2022-08-17T13:13:35.706Z,29.76
2022-08-17T13:16:09.328Z,29.69
2022-08-17T13:18:53.828Z,30.08
2022-08-17T13:21:29.920Z,30.27
2022-08-17T13:24:10.282Z,30.57
2022-08-17T13:26:41.925Z,30.39
2022-08-17T13:29:31.797Z,30.31
2022-08-17T13:32:13.605Z,30.17
2022-08-17T13:35:06.526Z,30.02
2022-08-17T13:37:28.377Z,30.11
2022-08-17T13:39:59.695Z,29.66
2022-08-17T13:42:50.547Z,29.86
2022-08-17T13:45:36.768Z,30.43
2022-08-17T13:48:12.523Z,30.54
2022-08-17T13:50:45.230Z,30.29
2022-08-17T13:53:38.189Z,29.96
2022-08-17T13:56:31.710Z,29.98
2022-08-17T13:58:44.758Z,29.50
2022-08-17T14:01:39.643Z,29.69
2022-08-17T14:04:11.610Z,29.91
2022-08-17T14:06:58.652Z,29.94
2022-08-17T14:09:36.808Z,29.83
2022-08-17T14:12:03.769Z,29.77
2022-08-17T14:14:33.576Z,29.85
2022-08-17T14:17:02.274Z,29.77
2022-08-17T14:19:31.297Z,29.55
2022-08-17T14:22:01.789Z,29.45
2022-08-17T14:24:33.646Z,29.55
2022-08-17T14:27:04.751Z,29.55
2022-08-17T14:29:35.941Z,29.56
2022-08-17T14:32:10.640Z,29.55
2022-08-17T14:34:39.309Z,29.62
2022-08-17T14:37:19.656Z,29.64
2022-08-17T14:42:46.121Z,29.85
2022-08-17T14:45:30.471Z,30.42
2022-08-17T14:47:46.711Z,30.65
2022-08-17T14:50:19.561Z,30.93
2022-08-17T14:55:43.135Z,31.80
2022-08-17T14:58:12.036Z,32.13
2022-08-17T15:00:57.636Z,31.59
2022-08-17T15:06:37.570Z,32.01
2022-08-17T15:09:06.416Z,32.61
2022-08-17T15:11:35.114Z,33.20
2022-08-17T15:14:03.891Z,32.38
2022-08-17T15:16:34.993Z,32.47
2022-08-17T15:19:08.813Z,32.90
2022-08-17T15:21:37.810Z,32.73
2022-08-17T15:24:09.084Z,32.87
2022-08-17T15:26:56.779Z,33.47
2022-08-17T15:29:29.964Z,33.38
2022-08-17T15:32:00.920Z,32.09
2022-08-17T15:34:30.122Z,32.30
2022-08-17T15:36:58.897Z,31.64
2022-08-17T15:39:33.681Z,32.13
2022-08-17T15:42:05.062Z,32.82
2022-08-17T15:44:37.608Z,32.96
2022-08-17T15:47:28.712Z,33.37
2022-08-17T15:49:55.461Z,33.99
2022-08-17T15:52:29.795Z,33.57
2022-08-17T15:55:01.898Z,33.46
2022-08-17T15:57:32.510Z,33.36
2022-08-17T16:00:02.403Z,33.22
2022-08-17T16:03:45.451Z,32.99
2022-08-17T16:05:21.832Z,32.71
2022-08-17T16:07:53.475Z,32.96
2022-08-17T16:10:34.588Z,33.21
2022-08-17T16:12:56.623Z,32.87
2022-08-17T16:15:42.799Z,31.33
2022-08-17T16:18:13.488Z,31.05
2022-08-17T16:20:52.729Z,30.53
2022-08-17T16:26:29.370Z,29.93
2022-08-17T16:29:08.212Z,29.75
2022-08-17T16:31:38.135Z,29.60
2022-08-17T16:34:32.580Z,29.48
2022-08-17T16:37:02.111Z,29.27
2022-08-17T16:42:37.856Z,29.02
2022-08-17T16:45:11.790Z,28.85
2022-08-17T16:47:42.251Z,28.73
2022-08-17T16:50:16.315Z,28.72
2022-08-17T16:52:47.707Z,28.57
2022-08-17T16:55:21.586Z,28.53
2022-08-17T16:57:59.970Z,28.42
2022-08-17T17:00:37.827Z,28.25
2022-08-17T17:03:35.384Z,28.30
2022-08-17T17:06:22.355Z,28.27
2022-08-17T17:09:17.774Z,28.11
2022-08-17T17:11:52.126Z,27.98
2022-08-17T17:14:27.938Z,27.90
2022-08-17T17:17:06.718Z,27.89
2022-08-17T17:19:55.253Z,27.75
2022-08-17T17:22:38.697Z,27.63
2022-08-17T17:25:25.454Z,27.59
2022-08-17T17:28:06.260Z,27.57
2022-08-17T17:30:57.404Z,27.32
2022-08-17T17:33:34.681Z,27.30
2022-08-17T17:36:07.263Z,27.21
2022-08-17T17:38:41.790Z,27.20
2022-08-17T17:41:20.282Z,26.95
2022-08-17T17:43:54.585Z,26.91
2022-08-17T17:46:33.471Z,26.82
2022-08-17T17:49:02.193Z,26.83
2022-08-17T17:52:08.614Z,26.70
2022-08-17T17:54:22.932Z,26.59
2022-08-17T17:57:09.914Z,26.51
2022-08-17T17:59:47.624Z,26.38
2022-08-17T18:02:43.248Z,26.12
2022-08-17T18:05:32.940Z,26.04
2022-08-17T18:08:34.886Z,25.97
2022-08-17T18:11:34.722Z,25.82
2022-08-17T18:14:01.077Z,25.67
2022-08-17T18:16:32.926Z,25.66
2022-08-17T18:19:01.804Z,25.57
2022-08-17T18:21:40.817Z,25.53
2022-08-17T18:24:10.698Z,25.50
2022-08-17T18:26:55.467Z,25.52
2022-08-17T18:29:34.604Z,25.45
2022-08-17T18:32:19.176Z,25.34
2022-08-17T18:34:51.106Z,25.28
2022-08-17T18:37:34.612Z,25.17
2022-08-17T18:40:21.630Z,25.04
2022-08-17T18:43:11.400Z,25.03
2022-08-17T18:45:50.886Z,24.94
2022-08-17T18:48:33.043Z,24.87
2022-08-17T18:51:07.547Z,24.90
2022-08-17T18:53:41.308Z,24.87
2022-08-17T18:56:24.785Z,24.73
2022-08-17T18:59:05.243Z,24.66
2022-08-17T19:01:53.395Z,24.69
2022-08-17T19:04:42.553Z,24.62
2022-08-17T19:07:19.809Z,24.57
2022-08-17T19:09:51.443Z,24.51
2022-08-17T19:12:38.498Z,24.48
2022-08-17T19:15:11.240Z,24.38
2022-08-17T19:17:57.698Z,24.31
2022-08-17T19:20:29.490Z,24.19
2022-08-17T19:23:23.917Z,23.97
2022-08-17T19:25:59.441Z,23.98
2022-08-17T19:28:53.250Z,23.92
2022-08-17T19:31:24.570Z,23.87
2022-08-17T19:33:53.867Z,23.78
2022-08-17T19:36:29.578Z,23.77
2022-08-17T19:39:18.040Z,23.66
2022-08-17T19:41:58.708Z,23.56
2022-08-17T19:44:50.895Z,23.46
2022-08-17T19:47:54.789Z,23.47
2022-08-17T19:50:44.777Z,23.43
2022-08-17T19:53:23.502Z,23.47
2022-08-17T19:56:11.740Z,23.40
2022-08-17T19:58:58.737Z,23.44
2022-08-17T20:01:36.439Z,23.37
2022-08-17T20:04:17.279Z,23.31
2022-08-17T20:06:50.602Z,23.28
2022-08-17T20:09:33.629Z,23.21
2022-08-17T20:12:14.047Z,23.17
2022-08-17T20:14:53.469Z,23.13
2022-08-17T20:17:16.641Z,23.08
2022-08-17T20:19:55.518Z,23.01
2022-08-17T20:22:31.326Z,23.00
2022-08-17T20:25:13.765Z,23.01
2022-08-17T20:27:54.492Z,22.99
2022-08-17T20:30:27.833Z,22.94
2022-08-17T20:33:02.328Z,22.86
2022-08-17T20:35:39.455Z,22.89
2022-08-17T20:38:13.884Z,22.79
2022-08-17T20:40:59.703Z,22.75
2022-08-17T20:43:37.597Z,22.80
2022-08-17T20:46:27.085Z,22.79
2022-08-17T20:49:01.529Z,22.69
2022-08-17T20:51:37.759Z,22.61
2022-08-17T20:54:18.222Z,22.58
2022-08-17T20:56:49.647Z,22.47
2022-08-17T20:59:28.567Z,22.39
2022-08-17T21:02:18.489Z,22.38
2022-08-17T21:04:48.555Z,22.36
2022-08-17T21:07:42.792Z,22.29
2022-08-17T21:10:15.189Z,22.36
2022-08-17T21:13:01.676Z,22.25
2022-08-17T21:15:44.543Z,22.26
2022-08-17T21:18:31.306Z,22.24
2022-08-17T21:21:28.444Z,22.20
2022-08-17T21:24:02.738Z,22.18
2022-08-17T21:26:50.459Z,22.13
2022-08-17T21:29:31.020Z,22.10
2022-08-17T21:32:13.765Z,21.98
2022-08-17T21:34:47.278Z,21.95
2022-08-17T21:37:25.029Z,21.96
2022-08-17T21:40:08.637Z,21.96
2022-08-17T21:42:34.804Z,21.90
2022-08-17T21:45:29.847Z,21.87
2022-08-17T21:48:16.783Z,21.80
2022-08-17T21:51:04.338Z,21.78
2022-08-17T21:53:48.063Z,21.70
2022-08-17T21:56:22.589Z,21.66
2022-08-17T21:58:56.891Z,21.69
2022-08-17T22:01:28.706Z,21.66
2022-08-17T22:04:03.058Z,21.57
2022-08-17T22:06:40.345Z,21.52
2022-08-17T22:09:12.703Z,21.52
2022-08-17T22:12:07.727Z,21.49
2022-08-17T22:14:52.063Z,21.44
2022-08-17T22:17:22.807Z,21.36
2022-08-17T22:20:12.331Z,21.52
2022-08-17T22:23:02.603Z,21.36
2022-08-17T22:25:35.110Z,21.33
2022-08-17T22:28:08.504Z,21.30
2022-08-17T22:31:05.360Z,21.39
2022-08-17T22:33:41.225Z,21.27
2022-08-17T22:36:29.912Z,21.17
2022-08-17T22:39:12.089Z,21.15
2022-08-17T22:41:56.068Z,21.07
2022-08-17T22:44:42.696Z,21.09
2022-08-17T22:47:19.231Z,21.07
2022-08-17T22:50:03.393Z,21.10
2022-08-17T22:52:42.996Z,20.99
2022-08-17T22:58:44.017Z,20.87
2022-08-17T23:01:31.513Z,20.86
2022-08-17T23:04:04.595Z,20.92
2022-08-17T23:06:39.399Z,20.82
2022-08-17T23:09:09.236Z,20.81
2022-08-17T23:11:49.878Z,20.84
2022-08-17T23:14:23.330Z,20.85
2022-08-17T23:16:56.654Z,20.69
2022-08-17T23:19:33.846Z,20.68
2022-08-17T23:22:05.716Z,20.65
2022-08-17T23:24:37.416Z,20.42
2022-08-17T23:27:12.531Z,20.61
2022-08-17T23:29:46.386Z,20.51
2022-08-17T23:32:20.578Z,20.47
2022-08-17T23:34:52.200Z,20.45
2022-08-17T23:37:27.237Z,20.39
2022-08-17T23:40:01.076Z,20.42
2022-08-17T23:42:30.807Z,20.43
2022-08-17T23:44:59.872Z,20.37
2022-08-17T23:47:31.639Z,20.36
2022-08-17T23:50:01.767Z,20.34
2022-08-17T23:52:35.168Z,20.22
2022-08-17T23:55:05.710Z,20.30
2022-08-17T23:57:36.241Z,20.25
